Aviation Digital Data Service (ADDS)

Output produced by METARs form (1644 UTC 25 October 2014)
found at http://aviationweather.gov/adds/metars/
 
METAR text: KSPB 251612Z AUTO 00000KT 10SM SCT029 OVC110 12/10 A2948 RMK AO2 T01170100
Conditions at: KSPB (SCAPPOOSE , OR, US) observed 1612 UTC 25 October 2014
Temperature: 11.7°C (53°F)
Dewpoint: 10.0°C (50°F) [RH = 89%]
Pressure (altimeter): 29.48 inches Hg (998.4 mb)
Winds: calm
Visibility: 10 or more miles (16+ km)
Ceiling: 11000 feet AGL
Clouds: scattered clouds at 2900 feet AGL
overcast cloud deck at 11000 feet AGL
Weather: automated observation with no human augmentation;
there may or may not be significant weather present at this time

METAR text: KSPB 251553Z AUTO 21004KT 10SM SCT011 OVC029 12/11 A2950 RMK AO2 RAE1455 SLP990 P0000 T01170106
Conditions at: KSPB (SCAPPOOSE , OR, US) observed 1553 UTC 25 October 2014
Temperature: 11.7°C (53°F)
Dewpoint: 10.6°C (51°F) [RH = 93%]
Pressure (altimeter): 29.50 inches Hg (999.1 mb)
[Sea-level pressure: 999.0 mb]
Winds: from the SSW (210 degrees) at 5 MPH (4 knots; 2.1 m/s)
Visibility: 10 or more miles (16+ km)
Ceiling: 2900 feet AGL
Clouds: scattered clouds at 1100 feet AGL
overcast cloud deck at 2900 feet AGL
Weather: automated observation with no human augmentation;
there may or may not be significant weather present at this time

METAR text: KSPB 251507Z AUTO 16008KT 10SM BKN011 OVC029 12/10 A2953 RMK AO2 RAE1455 P0000 T01170100
Conditions at: KSPB (SCAPPOOSE , OR, US) observed 1507 UTC 25 October 2014
Temperature: 11.7°C (53°F)
Dewpoint: 10.0°C (50°F) [RH = 89%]
Pressure (altimeter): 29.53 inches Hg (1000.1 mb)
Winds: from the SSE (160 degrees) at 9 MPH (8 knots; 4.2 m/s)
Visibility: 10 or more miles (16+ km)
Ceiling: 1100 feet AGL
Clouds: broken clouds at 1100 feet AGL
overcast cloud deck at 2900 feet AGL
Weather: automated observation with no human augmentation;
there may or may not be significant weather present at this time

METAR text: KSPB 251453Z AUTO 13006KT 10SM -RA FEW011 BKN029 OVC080 11/11 A2952 RMK AO2 SLP997 P0005 60007 T01110106 58020
Conditions at: KSPB (SCAPPOOSE , OR, US) observed 1453 UTC 25 October 2014
Temperature: 11.1°C (52°F)
Dewpoint: 10.6°C (51°F) [RH = 97%]
Pressure (altimeter): 29.52 inches Hg (999.7 mb)
[Sea-level pressure: 999.7 mb]
Winds: from the SE (130 degrees) at 7 MPH (6 knots; 3.1 m/s)
Visibility: 10 or more miles (16+ km)
Ceiling: 2900 feet AGL
Clouds: few clouds at 1100 feet AGL
broken clouds at 2900 feet AGL
overcast cloud deck at 8000 feet AGL
Weather: -RA  (light rain)

METAR text: KSPB 251450Z AUTO VRB04KT 10SM -RA FEW011 BKN029 OVC080 11/11 A2954 RMK AO2 P0005
Conditions at: KSPB (SCAPPOOSE , OR, US) observed 1450 UTC 25 October 2014
Temperature: 11.0°C (52°F)
Dewpoint: 11.0°C (52°F) [RH = 100%]
Pressure (altimeter): 29.54 inches Hg (1000.4 mb)
Winds: variable direction winds at 5 MPH (4 knots; 2.1 m/s)
Visibility: 10 or more miles (16+ km)
Ceiling: 2900 feet AGL
Clouds: few clouds at 1100 feet AGL
broken clouds at 2900 feet AGL
overcast cloud deck at 8000 feet AGL
Weather: -RA  (light rain)